Terminal Aerodrome Forecast
Issued by NWS

Home | Current Version | Previous Version | Text Only | Print | Product List | Glossary On
Versions: 1 2 3 4 5 6 7 8 9 10 11 12 13 14 15 16 17 18
000
FTUS43 KJKL 282300
TAFSJS
TAF
KSJS 282335Z 2900/2924 32005KT P6SM VCSH SCT025 BKN070
     FM290800 VRB03KT P6SM SCT007 OVC015
     FM291300 31005KT 6SM BR FEW007 BKN025
     FM291400 33007KT P6SM BKN050=

USA.gov is the U.S. government's official web portal to all federal, state and local government web resources and services.